This is the latest recevied weather packets stored in our database for station/object XE2RCS-21. If no packets are shown the sender has not sent any weather packets the latest 10 day(s).
| Time | Temp. | Humidity | Pressure | Rain* | Wind** | Luminosity | Snow |
|---|---|---|---|---|---|---|---|
| 1777840234 | 31.67° C | 41% | 1024.2 hPa | - | - | - | - |
| 1777838434 | 26.67° C | 58% | 1024.7 hPa | - | - | - | - |
| 1777836634 | 27.78° C | 54% | 1025.1 hPa | - | - | - | - |
| 1777834834 | 27.78° C | 52% | 1025.6 hPa | - | - | - | - |
| 1777833033 | 26.67° C | 70% | 1025.6 hPa | - | - | - | - |
| 1777831233 | 24.44° C | 94% | 1025.9 hPa | - | - | - | - |
| 1777829433 | 25.56° C | 100% | 1025.3 hPa | - | - | - | - |
| 1777827633 | 17.22° C | 100% | 1017.3 hPa | - | - | - | - |
| 1777825833 | 13.89° C | 100% | 1015.1 hPa | - | - | - | - |
| 1777824033 | 13.89° C | 100% | 1014.4 hPa | - | - | - | - |
| 1777822233 | 13.33° C | 100% | 1007.9 hPa | - | - | - | - |
| 1777820433 | 12.78° C | 100% | 1005.8 hPa | - | - | - | - |
| 1777818633 | 12.78° C | 100% | 1005.3 hPa | - | - | - | - |
| 1777816833 | 12.78° C | 100% | 1004.5 hPa | - | - | - | - |
| 1777815033 | 11.67° C | 100% | 1004.6 hPa | - | - | - | - |
| 1777813233 | 11.67° C | 100% | 1004 hPa | - | - | - | - |
| 1777811432 | 11.11° C | 100% | 1003.5 hPa | - | - | - | - |
| 1777809632 | 11.11° C | 100% | 1002.9 hPa | - | - | - | - |
| 1777807832 | 11.11° C | 100% | 1002.6 hPa | - | - | - | - |
| 1777806032 | 11.11° C | 100% | 1002.3 hPa | - | - | - | - |
| 1777804231 | 11.11° C | 100% | 1001.8 hPa | - | - | - | - |
| 1777802430 | 11.11° C | 100% | 1000.3 hPa | - | - | - | - |
| 1777800632 | 11.11° C | 100% | 1002.6 hPa | - | - | - | - |
| 1777798832 | 11.11° C | 100% | 1002.6 hPa | - | - | - | - |
| 1777797032 | 11.11° C | 100% | 1003.3 hPa | - | - | - | - |
* Rain since midnight (hover to see other rain measurements)
** Current wind speed in m/s (hover to see current wind gust speed)